Thunder radar more information blitzortung!


Radar de pluja more information rain snow radar


Visita la nostra xarxa de llocs de meteo:

Template documentation
and downloads

And another site



No particular awareness of the weather is required.    There are no Weather-warnings

Pagina Historial Weather Underground text

Diari Resum Abril 14, 2016 Unitats:  Mètric    Imperial   Tant
« Previous Dia
SegĂźent Dia »
Diari Setmana Mensual Anual Personalitzada
  Maxima: Minima: Media:
Temperatura: -17.8 °C -13.6 °C -8.2 °C
Punt de rosada: -17.8 °C -17.7 °C -15.6 °C
Humitat: Humidity % 28 % 43 %
Wind Speed: 0 km/h 0 km/h 12.7 km/h
RĂ fegues de vent: 0 km/h - -
Vent:- - SSW
Pression baro: 0 hPa 34256.2 hPa -
Precipitacions: 0 mm    
Historical Graphs
 
 
Dades de taula per Abril 14, 2016
Temps Temperatura Punt de rosada Pression baro Vent Wind Speed RĂ fegues de vent Humitat Rainfall Rate (Hourly)
-17.8 °C -17.8 °C 0 hPa Calm     Humidity % 0 mm
00:00 -12.6 °C -17.4 °C 34395 hPa Calm   2.6 km/h 55 % 0 mm
00:03 -10 °C -17.3 °C 34395 hPa NNE 3.7 km/h 3.7 km/h 41 % 0 mm
00:10 -12.7 °C -17.4 °C 34395 hPa NE 2.6 km/h 5.1 km/h 55 % 0 mm
00:20 -12.7 °C -17.3 °C 34428.8 hPa ENE 2.6 km/h 2.6 km/h 56 % 0 mm
00:30 -12.9 °C -17.6 °C 34428.8 hPa SE 2.6 km/h 2.6 km/h 56 % 0 mm
00:40 -13.1 °C -17.7 °C 34395 hPa SW 2.6 km/h 5.1 km/h 56 % 0 mm
00:50 -13.1 °C -17.6 °C 34395 hPa Calm     57 % 0 mm
01:00 -13.2 °C -17.5 °C 34395 hPa Calm     58 % 0 mm
01:10 -13.2 °C -17.4 °C 34395 hPa Calm   5.1 km/h 59 % 0 mm
01:20 -13.3 °C -17.3 °C 34395 hPa Calm   5.1 km/h 60 % 0 mm
01:30 -13.2 °C -17.4 °C 34395 hPa ESE 2.6 km/h 2.6 km/h 59 % 0 mm
01:40 -13.2 °C -17.4 °C 34395 hPa Calm     59 % 0 mm
01:50 -13.3 °C -17.6 °C 34395 hPa WNW 2.6 km/h 5.1 km/h 58 % 0 mm
02:00 -13.6 °C -17.4 °C 34395 hPa WSW 7.7 km/h 10.3 km/h 61 % 0 mm
02:10 -13.4 °C -17.4 °C 34395 hPa SW 2.6 km/h 7.7 km/h 61 % 0 mm
02:20 -13.4 °C -17.3 °C 34428.8 hPa Calm   5.1 km/h 62 % 0 mm
02:30 -13.3 °C -17.1 °C 34428.8 hPa SW 2.6 km/h 2.6 km/h 62 % 0 mm
02:40 -13.1 °C -16.9 °C 34462.7 hPa Calm   2.6 km/h 62 % 0 mm
02:50 -12.9 °C -16.7 °C 34462.7 hPa Calm   2.6 km/h 62 % 0 mm
03:00 -12.6 °C -16.5 °C 34462.7 hPa Calm   2.6 km/h 61 % 0 mm
03:10 -12.5 °C -16.6 °C 34428.8 hPa NE 5.1 km/h 5.1 km/h 60 % 0 mm
03:20 -12.6 °C -16.7 °C 34462.7 hPa NE 2.6 km/h 5.1 km/h 60 % 0 mm
03:30 -12.2 °C -16.2 °C 34462.7 hPa NE 2.6 km/h 5.1 km/h 61 % 0 mm
03:40 -11.9 °C -16.2 °C 34428.8 hPa South 2.6 km/h 5.1 km/h 59 % 0 mm
03:50 -11.8 °C -16.2 °C 34462.7 hPa Calm   5.1 km/h 58 % 0 mm
04:00 -11.6 °C -16 °C 34462.7 hPa SW 2.6 km/h 2.6 km/h 58 % 0 mm
04:10 -11.4 °C -16 °C 34462.7 hPa SSW 2.6 km/h 5.1 km/h 57 % 0 mm
04:20 -11.2 °C -15.8 °C 34462.7 hPa SSW 2.6 km/h 5.1 km/h 57 % 0 mm
04:30 -10.9 °C -15.5 °C 34462.7 hPa SSW 5.1 km/h 5.1 km/h 57 % 0 mm
04:40 -10.6 °C -15.4 °C 34462.7 hPa South 2.6 km/h 5.1 km/h 56 % 0 mm
04:50 -10.4 °C -15.2 °C 34428.8 hPa South 2.6 km/h 7.7 km/h 56 % 0 mm
05:00 -10 °C -14.9 °C 34428.8 hPa SE 5.1 km/h 7.7 km/h 55 % 0 mm
05:10 -9.6 °C -14.6 °C 34428.8 hPa Calm   5.1 km/h 55 % 0 mm
05:20 -9.3 °C -14.5 °C 34462.7 hPa Calm   5.1 km/h 54 % 0 mm
05:30 -9.2 °C -14.4 °C 34462.7 hPa NE 5.1 km/h 7.7 km/h 54 % 0 mm
05:35 -8.9 °C -14.1 °C 34462.7 hPa ENE 5.1 km/h 5.1 km/h 54 % 0 mm
10:37 -8.8 °C -14 °C 34462.7 hPa NE 6 km/h 6 km/h 54 % 0 mm
10:42 -8.9 °C -14.2 °C 34462.7 hPa NE 9 km/h 9 km/h 53 % 0 mm
10:52 -8.6 °C -13.9 °C 34428.8 hPa WNW 3.7 km/h 3.7 km/h 53 % 0 mm
10:57 -8.6 °C -13.9 °C 34428.8 hPa WSW 6 km/h 6 km/h 53 % 0 mm
11:02 -8.5 °C -14 °C 34462.7 hPa East 6 km/h 6 km/h 52 % 0 mm
11:07 -8.4 °C -13.9 °C 34462.7 hPa ESE 6 km/h 6 km/h 52 % 0 mm
11:12 -8 °C -13.7 °C 34462.7 hPa NE 6.8 km/h 6.8 km/h 51 % 0 mm
11:17 -7.9 °C -13.8 °C 34428.8 hPa NE 9 km/h 9 km/h 50 % 0 mm
11:22 -7.9 °C -13.8 °C 34428.8 hPa ENE 3.7 km/h 3.7 km/h 50 % 0 mm
11:32 -8 °C -13.8 °C 34428.8 hPa ESE 9 km/h 9 km/h 50 % 0 mm
11:37 -7.8 °C -13.8 °C 34428.8 hPa SSE 6 km/h 6 km/h 49 % 0 mm
11:47 -7.4 °C -13.5 °C 34428.8 hPa NNW 6 km/h 6 km/h 49 % 0 mm
11:52 -7.2 °C -13.7 °C 34428.8 hPa NE 6 km/h 6 km/h 47 % 0 mm
11:57 -7 °C -13.4 °C 34428.8 hPa ESE 6 km/h 6.8 km/h 47 % 0 mm
12:02 -6.8 °C -13.3 °C 34428.8 hPa SW 9 km/h 9 km/h 47 % 0 mm
12:07 -6.9 °C -13.7 °C 34428.8 hPa WNW 11.9 km/h 11.9 km/h 45 % 0 mm
12:12 -6.8 °C -13.5 °C 34428.8 hPa SSE 9 km/h 9 km/h 46 % 0 mm
12:17 -6.6 °C -13.4 °C 34395 hPa SW 8.5 km/h 8.5 km/h 45 % 0 mm
12:22 -6.4 °C -13.7 °C 34395 hPa South 8 km/h 8 km/h 43 % 0 mm
12:27 -6.4 °C -13.7 °C 34395 hPa NW 9 km/h 9 km/h 43 % 0 mm
12:32 -6.4 °C -13.4 °C 34395 hPa WSW 9 km/h 9 km/h 44 % 0 mm
12:37 -6.2 °C -13.4 °C 34395 hPa SW 11.9 km/h 11.9 km/h 43 % 0 mm
12:42 -6.4 °C -14.3 °C 34395 hPa WSW 15 km/h 15 km/h 40 % 0 mm
12:47 -6.4 °C -14.2 °C 34395 hPa SE 10.3 km/h 10.3 km/h 40 % 0 mm
12:52 -6.1 °C -13.9 °C 34395 hPa East 6.3 km/h 6.3 km/h 40 % 0 mm
12:57 -5.7 °C -13.4 °C 34395 hPa NW 5.1 km/h 5.1 km/h 41 % 0 mm
13:02 -5.8 °C -13.8 °C 34395 hPa NNE 14.5 km/h 14.5 km/h 39 % 0 mm
13:07 -5.8 °C -13.9 °C 34395 hPa NE 6 km/h 8 km/h 39 % 0 mm
13:12 -5.8 °C -14.3 °C 34395 hPa NW 15 km/h 15 km/h 37 % 0 mm
13:17 -5.7 °C -14.2 °C 34395 hPa East 6 km/h 6.8 km/h 37 % 0 mm
13:22 -5.2 °C -14 °C 34395 hPa SE 27.7 km/h 27.7 km/h 36 % 0 mm
13:27 -5.1 °C -14.1 °C 34395 hPa South 9.8 km/h 9.8 km/h 35 % 0 mm
13:32 -5.1 °C -14.1 °C 34361.1 hPa SSW 16.1 km/h 16.1 km/h 35 % 0 mm
13:37 -5 °C -15.1 °C 34361.1 hPa SSW 15.6 km/h 15.6 km/h 31 % 0 mm
13:42 -5.2 °C -15.2 °C 34361.1 hPa WSW 15 km/h 15 km/h 31 % 0 mm
13:47 -5 °C -15.3 °C 34361.1 hPa SSE 15 km/h 15 km/h 30 % 0 mm
13:52 -4.9 °C -15.2 °C 34361.1 hPa NNW 32.8 km/h 32.8 km/h 30 % 0 mm
13:57 -4.9 °C -15.5 °C 34361.1 hPa West 26.9 km/h 26.9 km/h 29 % 0 mm
14:02 -4.9 °C -15.5 °C 34327.3 hPa SSW 20.9 km/h 20.9 km/h 29 % 0 mm
14:07 -5 °C -15.6 °C 34327.3 hPa SW 23.8 km/h 23.8 km/h 29 % 0 mm
14:12 -4.6 °C -15.2 °C 34327.3 hPa South 15 km/h 15 km/h 29 % 0 mm
14:18 -4.7 °C -15.3 °C 34293.4 hPa SSW 26.9 km/h 26.9 km/h 29 % 0 mm
14:23 -4.7 °C -15.3 °C 34293.4 hPa WSW 3.1 km/h 3.1 km/h 29 % 0 mm
14:28 -4.4 °C -15.1 °C 34293.4 hPa WSW 8 km/h 8.5 km/h 29 % 0 mm
14:30 -7.2 °C -16.7 °C 34293.4 hPa SW 5.1 km/h 5.1 km/h 32 % 0 mm
14:33 -4.6 °C -15.2 °C 34327.3 hPa SW 17.9 km/h 17.9 km/h 29 % 0 mm
14:38 -4.4 °C -15.1 °C 34327.3 hPa SSW 6.8 km/h 8 km/h 29 % 0 mm
14:43 -4.4 °C -15.1 °C 34327.3 hPa SW 11.9 km/h 11.9 km/h 29 % 0 mm
14:48 -4.4 °C -15.1 °C 34327.3 hPa SSE 29.8 km/h 29.8 km/h 29 % 0 mm
14:53 -4.6 °C -15.2 °C 34327.3 hPa SSW 11.9 km/h 11.9 km/h 29 % 0 mm
14:58 -4.4 °C -15.1 °C 34327.3 hPa SSW 9 km/h 11.6 km/h 29 % 0 mm
15:03 -4.6 °C -15.5 °C 34327.3 hPa SSW 29.8 km/h 29.8 km/h 28 % 0 mm
15:08 -4.7 °C -15.6 °C 34327.3 hPa SSW 17.9 km/h 17.9 km/h 28 % 0 mm
15:13 -4.6 °C -15.2 °C 34327.3 hPa SSE 6.3 km/h 6.3 km/h 29 % 0 mm
15:18 -4.8 °C -15.7 °C 34327.3 hPa SW 11.9 km/h 11.9 km/h 28 % 0 mm
15:23 -4.9 °C -15.7 °C 34327.3 hPa SW 23.8 km/h 23.8 km/h 28 % 0 mm
15:28 -4.9 °C -15.8 °C 34327.3 hPa WSW 23.8 km/h 23.8 km/h 28 % 0 mm
15:33 -4.9 °C -15.7 °C 34327.3 hPa WSW 32.8 km/h 32.8 km/h 28 % 0 mm
15:38 -5.1 °C -15.7 °C 34327.3 hPa South 39.9 km/h 39.9 km/h 29 % 0 mm
15:43 -5.2 °C -15.4 °C 34327.3 hPa SSW 26.9 km/h 26.9 km/h 30 % 0 mm
15:48 -5 °C -15.6 °C 34327.3 hPa SSW 11.9 km/h 12.2 km/h 29 % 0 mm
15:53 -4.9 °C -15.8 °C 34327.3 hPa SSW 20.9 km/h 23.8 km/h 28 % 0 mm
15:58 -5.2 °C -15.7 °C 34327.3 hPa SSW 20.9 km/h 23.8 km/h 29 % 0 mm
16:03 -5.4 °C -15.9 °C 34327.3 hPa SW 38.1 km/h 38.1 km/h 29 % 0 mm
16:08 -5.2 °C -15.5 °C 34327.3 hPa WSW 12.7 km/h 12.7 km/h 30 % 0 mm
16:13 -5.1 °C -15.4 °C 34327.3 hPa SSW 15 km/h 15.3 km/h 30 % 0 mm
16:18 -5.3 °C -15.5 °C 34293.4 hPa South 23.8 km/h 23.8 km/h 30 % 0 mm
16:23 -5.6 °C -15.8 °C 34293.4 hPa South 15.3 km/h 19.6 km/h 30 % 0 mm
16:28 -5.5 °C -15.7 °C 34293.4 hPa South 15.3 km/h 19.6 km/h 30 % 0 mm
16:33 -5.4 °C -15.7 °C 34293.4 hPa SW 9.8 km/h 18.3 km/h 30 % 0 mm
16:38 -5.4 °C -15.6 °C 34293.4 hPa SW 20.3 km/h 20.3 km/h 30 % 0 mm
16:43 -5.4 °C -15.7 °C 34293.4 hPa WSW 11.9 km/h 11.9 km/h 30 % 0 mm
16:48 -5.4 °C -15.6 °C 34293.4 hPa WSW 11.9 km/h 11.9 km/h 30 % 0 mm
16:53 -5.6 °C -15.8 °C 34293.4 hPa SW 22 km/h 22 km/h 30 % 0 mm
16:58 -5.4 °C -15.7 °C 34293.4 hPa WSW 23.8 km/h 23.8 km/h 30 % 0 mm
17:03 -5.5 °C -15.7 °C 34293.4 hPa SW 20.9 km/h 20.9 km/h 30 % 0 mm
17:08 -5.6 °C -15.8 °C 34293.4 hPa SSW 44.7 km/h 44.7 km/h 30 % 0 mm
17:13 -5.7 °C -15.9 °C 34293.4 hPa WSW 44.7 km/h 44.7 km/h 30 % 0 mm
17:18 -5.6 °C -15.8 °C 34256.2 hPa South 20.9 km/h 20.9 km/h 30 % 0 mm
17:23 -5.6 °C -15.8 °C 34256.2 hPa SW 23.8 km/h 23.8 km/h 30 % 0 mm
17:28 -5.7 °C -15.9 °C 34256.2 hPa SW 27.7 km/h 27.7 km/h 30 % 0 mm
17:33 -5.7 °C -15.9 °C 34293.4 hPa SSW 20.9 km/h 20.9 km/h 30 % 0 mm
17:38 -5.8 °C -16.3 °C 34293.4 hPa SW 35.7 km/h 35.7 km/h 29 % 0 mm
17:43 -5.8 °C -16 °C 34293.4 hPa WSW 15 km/h 20.3 km/h 30 % 0 mm
17:48 -5.9 °C -16.1 °C 34256.2 hPa SW 31.4 km/h 31.4 km/h 30 % 0 mm
17:53 -5.9 °C -16.1 °C 34256.2 hPa SW 31.4 km/h 31.4 km/h 30 % 0 mm
17:58 -5.9 °C -16.1 °C 34256.2 hPa WSW 20.9 km/h 20.9 km/h 30 % 0 mm
18:03 -6 °C -16.2 °C 34256.2 hPa SSW 23.8 km/h 23.8 km/h 30 % 0 mm
18:08 -6 °C -16.2 °C 34256.2 hPa SW 26.9 km/h 26.9 km/h 30 % 0 mm
18:13 -6.2 °C -16.3 °C 34256.2 hPa WSW 25.9 km/h 25.9 km/h 30 % 0 mm
18:18 -6.2 °C -16.3 °C 34256.2 hPa SSW 23.8 km/h 23.8 km/h 30 % 0 mm
18:23 -6.2 °C -16.3 °C 34256.2 hPa SSW 29.8 km/h 29.8 km/h 30 % 0 mm
18:28 -6.3 °C -16.2 °C 34256.2 hPa SSW 26.9 km/h 26.9 km/h 31 % 0 mm
18:33 -6.3 °C -16.4 °C 34256.2 hPa SW 23.8 km/h 23.8 km/h 30 % 0 mm
18:38 -6.4 °C -16.5 °C 34256.2 hPa SW 20.9 km/h 23.3 km/h 30 % 0 mm
18:43 -6.4 °C -16.6 °C 34256.2 hPa SSW 15 km/h 17.9 km/h 30 % 0 mm
18:48 -6.4 °C -16.3 °C 34293.4 hPa SSW 15 km/h 17.9 km/h 31 % 0 mm
18:53 -6.6 °C -16.4 °C 34293.4 hPa South 35.7 km/h 35.7 km/h 31 % 0 mm
19:03 -6.6 °C -16.4 °C 34293.4 hPa SW 22 km/h 22.5 km/h 31 % 0 mm
19:08 -6.7 °C -16.5 °C 34293.4 hPa SW 22 km/h 22.5 km/h 31 % 0 mm
19:13 -6.8 °C -16.3 °C 34293.4 hPa SW 22 km/h 22.5 km/h 32 % 0 mm
19:18 -6.9 °C -16.4 °C 34293.4 hPa SW 22 km/h 22.5 km/h 32 % 0 mm
19:20 -9.9 °C -15.2 °C 34293.4 hPa West 5.1 km/h 12.9 km/h 53 % 0 mm
19:23 -7.1 °C -16.6 °C 34293.4 hPa SW 22 km/h 22.5 km/h 32 % 0 mm
19:30 -7.2 °C -16.7 °C 34256.2 hPa SW 22 km/h 22 km/h 32 % 0 mm
19:35 -7.3 °C -16.5 °C 34256.2 hPa SW 22 km/h 22 km/h 33 % 0 mm
19:40 -7.3 °C -16.6 °C 34256.2 hPa SW 22 km/h 22 km/h 33 % 0 mm
19:45 -7.4 °C -16.6 °C 34293.4 hPa SW 22 km/h 22 km/h 33 % 0 mm
19:50 -7.4 °C -16.7 °C 34293.4 hPa SW 22 km/h 22 km/h 33 % 0 mm
19:55 -7.5 °C -16.5 °C 34293.4 hPa SW 22.5 km/h 22.5 km/h 34 % 0 mm
20:00 -7.6 °C -16.6 °C 34293.4 hPa SW 23.8 km/h 23.8 km/h 34 % 0 mm
20:05 -7.6 °C -16.3 °C 34293.4 hPa SW 23.8 km/h 23.8 km/h 35 % 0 mm
20:10 -7.7 °C -16.4 °C 34293.4 hPa SW 23.8 km/h 23.8 km/h 35 % 0 mm
20:15 -7.8 °C -16.3 °C 34293.4 hPa SW 23.8 km/h 23.8 km/h 36 % 0 mm
20:20 -7.9 °C -16.2 °C 34293.4 hPa SW 23.8 km/h 23.8 km/h 37 % 0 mm
20:25 -7.9 °C -16.2 °C 34293.4 hPa SW 23.8 km/h 23.8 km/h 37 % 0 mm
20:30 -8 °C -16.1 °C 34293.4 hPa SW 23.8 km/h 23.8 km/h 38 % 0 mm
20:35 -8.1 °C -16.1 °C 34293.4 hPa SW 23.8 km/h 23.8 km/h 38 % 0 mm
20:40 -10.4 °C -14.4 °C 34293.4 hPa WNW 2.6 km/h 5.1 km/h 62 % 0 mm
20:45 -8.3 °C -16.1 °C 34293.4 hPa SW 23.8 km/h 23.8 km/h 39 % 0 mm
20:50 -8.3 °C -16.2 °C 34293.4 hPa SW 23.8 km/h 23.8 km/h 39 % 0 mm
20:55 -8.4 °C -16 °C 34293.4 hPa SW 23.8 km/h 23.8 km/h 40 % 0 mm
21:00 -8.4 °C -16.1 °C 34293.4 hPa SW 23.8 km/h 23.8 km/h 40 % 0 mm
21:05 -8.6 °C -16.2 °C 34293.4 hPa SW 23.8 km/h 23.8 km/h 40 % 0 mm
21:10 -8.6 °C -16 °C 34293.4 hPa WSW 15 km/h 15 km/h 41 % 0 mm
21:15 -8.7 °C -16.1 °C 34293.4 hPa SW 9.3 km/h 9.8 km/h 41 % 0 mm
21:20 -8.7 °C -15.9 °C 34293.4 hPa SW 9 km/h 9.3 km/h 42 % 0 mm
21:25 -8.8 °C -15.9 °C 34293.4 hPa WSW 9 km/h 9 km/h 42 % 0 mm
21:30 -11 °C -14.6 °C 34327.3 hPa West 5.1 km/h 12.9 km/h 65 % 0 mm
21:31 -8.8 °C -16 °C 34327.3 hPa West 6.3 km/h 6.8 km/h 42 % 0 mm
21:36 -8.9 °C -16.1 °C 34327.3 hPa SSW 6 km/h 6 km/h 42 % 0 mm
21:40 -10.9 °C -14.4 °C 34327.3 hPa WSW 5.1 km/h 7.7 km/h 66 % 0 mm
21:41 -9 °C -16 °C 34327.3 hPa SW 9 km/h 9 km/h 43 % 0 mm
21:46 -9.1 °C -16 °C 34327.3 hPa WSW 9 km/h 9 km/h 43 % 0 mm
21:50 -10.9 °C -14.3 °C 34327.3 hPa SW 5.1 km/h 7.7 km/h 66 % 0 mm
21:56 -9.1 °C -15.9 °C 34327.3 hPa WSW 11.9 km/h 11.9 km/h 44 % 0 mm
22:00 -10.9 °C -14.5 °C 34327.3 hPa Calm   5.1 km/h 65 % 0 mm
22:01 -9.2 °C -15.8 °C 34293.4 hPa SW 9 km/h 9 km/h 45 % 0 mm
22:06 -9.3 °C -15.9 °C 34293.4 hPa SW 11.9 km/h 11.9 km/h 45 % 0 mm
22:10 -10.9 °C -14.4 °C 34293.4 hPa WSW 5.1 km/h 10.3 km/h 65 % 0 mm
22:11 -9.3 °C -15.7 °C 34293.4 hPa WSW 9.8 km/h 9.8 km/h 46 % 0 mm
22:16 -9.4 °C -15.8 °C 34327.3 hPa WSW 6.3 km/h 7.6 km/h 46 % 0 mm
22:20 -11.1 °C -14.9 °C 34361.1 hPa WSW 5.1 km/h 7.7 km/h 63 % 0 mm
22:21 -9.4 °C -15.9 °C 34327.3 hPa SW 6 km/h 6.3 km/h 46 % 0 mm
22:26 -9.5 °C -15.7 °C 34327.3 hPa SW 6.8 km/h 6.8 km/h 47 % 0 mm
22:30 -11.1 °C -15.1 °C 34361.1 hPa WSW 2.6 km/h 7.7 km/h 62 % 0 mm
22:31 -9.6 °C -15.8 °C 34327.3 hPa SW 9 km/h 9 km/h 47 % 0 mm
22:36 -9.6 °C -15.7 °C 34327.3 hPa SW 6.8 km/h 6.8 km/h 48 % 0 mm
22:40 -11.1 °C -14.8 °C 34327.3 hPa West 5.1 km/h 7.7 km/h 63 % 0 mm
22:41 -9.7 °C -15.7 °C 34327.3 hPa SW 9 km/h 9 km/h 48 % 0 mm
22:46 -9.7 °C -15.7 °C 34293.4 hPa SSW 6 km/h 6.8 km/h 48 % 0 mm
22:50 -11 °C -14.7 °C 34327.3 hPa West 5.1 km/h 5.1 km/h 64 % 0 mm
22:51 -9.7 °C -15.6 °C 34293.4 hPa SW 11.9 km/h 11.9 km/h 49 % 0 mm
22:56 -9.7 °C -15.6 °C 34293.4 hPa WSW 9 km/h 9 km/h 49 % 0 mm
23:00 -10.8 °C -14.1 °C 34327.3 hPa West 5.1 km/h 7.7 km/h 67 % 0 mm
23:01 -9.7 °C -15.4 °C 34293.4 hPa WSW 9 km/h 9 km/h 50 % 0 mm
23:06 -9.8 °C -15.5 °C 34293.4 hPa WSW 6 km/h 6 km/h 50 % 0 mm
23:10 -10.9 °C -14.1 °C 34327.3 hPa West 5.1 km/h 7.7 km/h 68 % 0 mm
23:11 -9.8 °C -15.5 °C 34293.4 hPa SW 6 km/h 6 km/h 50 % 0 mm
23:16 -9.8 °C -15.5 °C 34327.3 hPa SW 9 km/h 9 km/h 50 % 0 mm
23:20 -10.9 °C -13.9 °C 34293.4 hPa Calm   5.1 km/h 70 % 0 mm
23:21 -9.8 °C -15.6 °C 34327.3 hPa WNW 3.1 km/h 3.1 km/h 50 % 0 mm
23:26 -9.8 °C -15.6 °C 34327.3 hPa West 6 km/h 6 km/h 50 % 0 mm
23:30 -11 °C -14.1 °C 34293.4 hPa WSW 5.1 km/h 7.7 km/h 69 % 0 mm
23:36 -9.8 °C -15.6 °C 34293.4 hPa WSW 3.1 km/h 3.7 km/h 50 % 0 mm
23:40 -10.9 °C -13.6 °C 34293.4 hPa West 5.1 km/h 15.6 km/h 73 % 0 mm
23:41 -9.8 °C -15.4 °C 34293.4 hPa West 6 km/h 6 km/h 51 % 0 mm
23:46 -9.8 °C -15.4 °C 34327.3 hPa WSW 6.3 km/h 6.3 km/h 51 % 0 mm
23:51 -9.9 °C -15.4 °C 34327.3 hPa West 6 km/h 6 km/h 51 % 0 mm
23:56 -9.9 °C -15.4 °C 34327.3 hPa West 6.3 km/h 7.6 km/h 51 % 0 mm
Meteo Sesrovires
Elogis d' Weather Underground - 1.5 mb

Guio original per  Jim McMurry - jmcmurry@mwt.net Adaptat per a la plantilla per  Wim van der Kuil - Leuven-Template.eu

Trobareu la nostra informacio del temps tambe a:

Weather Underground

AWEKAS